Time;durP1;ratioP1;P1;durP2;ratioP2;P2;SDS_P1;SDS_P2;PMS_P1;PMS_P2;Temp;Humidity;BMP_temperature;BMP_pressure;BME280_temperature;BME280_humidity;BME280_pressure;Samples;Min_cycle;Max_cycle;Signal;HPM_P1;HPM_P2
2021/01/10 00:00:29;;;;;;;15.87;9.13;;;0.80;99.90;;;;;;5051330;28;20175;-66
2021/01/10 00:02:56;;;;;;;14.93;9.33;;;0.80;99.90;;;;;;5033165;28;20425;-66
2021/01/10 00:05:36;;;;;;;12.60;8.10;;;1.40;99.90;;;;;;5051365;28;20737;-65
2021/01/10 00:08:02;;;;;;;13.93;9.17;;;0.80;99.90;;;;;;5050988;28;20437;-64
2021/01/10 00:10:29;;;;;;;11.53;8.07;;;0.80;99.90;;;;;;5051571;28;20494;-64
2021/01/10 00:12:59;;;;;;;13.70;9.30;;;0.80;99.90;;;;;;5051400;28;20879;-64
2021/01/10 00:15:24;;;;;;;13.47;8.47;;;0.80;99.90;;;;;;5051367;28;20426;-65
2021/01/10 00:17:50;;;;;;;13.80;7.73;;;0.90;99.90;;;;;;5051182;28;20741;-64
2021/01/10 00:20:20;;;;;;;14.33;8.70;;;1.00;99.90;;;;;;5050964;28;20178;-65
2021/01/10 00:22:56;;;;;;;12.30;8.03;;;1.10;99.90;;;;;;5051588;28;20214;-66
2021/01/10 00:25:23;;;;;;;11.00;7.10;;;1.00;99.90;;;;;;5051083;28;20468;-63
2021/01/10 00:27:49;;;;;;;13.13;7.60;;;1.10;99.90;;;;;;5051156;28;20817;-64
2021/01/10 00:30:18;;;;;;;11.73;7.07;;;1.10;99.90;;;;;;5051411;28;20421;-66
2021/01/10 00:32:51;;;;;;;11.23;7.50;;;1.20;99.90;;;;;;5051391;28;20409;-64
2021/01/10 00:35:17;;;;;;;8.50;6.37;;;1.20;99.90;;;;;;5049694;28;20512;-63
2021/01/10 00:37:48;;;;;;;10.07;6.90;;;1.20;99.90;;;;;;5051182;28;20934;-63
2021/01/10 00:40:15;;;;;;;9.97;6.90;;;1.20;99.90;;;;;;5051027;28;20421;-66
2021/01/10 00:42:42;;;;;;;10.27;7.07;;;1.20;99.90;;;;;;5051169;28;20842;-65
2021/01/10 00:45:08;;;;;;;10.87;6.70;;;1.30;99.90;;;;;;5050879;28;20429;-65
2021/01/10 00:47:33;;;;;;;10.67;7.40;;;1.30;99.90;;;;;;5050731;28;20892;-65
2021/01/10 00:49:59;;;;;;;11.13;7.73;;;1.30;99.90;;;;;;5053060;28;20470;-66
2021/01/10 00:52:29;;;;;;;9.73;7.40;;;1.40;99.90;;;;;;5054692;28;20186;-64
2021/01/10 00:54:54;;;;;;;15.70;8.00;;;1.40;99.90;;;;;;5054752;28;20175;-67
2021/01/10 00:57:20;;;;;;;10.63;7.50;;;1.30;99.90;;;;;;5054762;28;20417;-66
2021/01/10 00:59:46;;;;;;;11.20;7.63;;;1.40;99.90;;;;;;5054335;28;20187;-66
2021/01/10 01:02:12;;;;;;;11.20;7.23;;;1.40;99.90;;;;;;5054666;28;20229;-66
2021/01/10 01:04:38;;;;;;;10.00;7.43;;;1.40;99.90;;;;;;5053042;28;20167;-65
2021/01/10 01:07:04;;;;;;;9.77;7.17;;;1.50;99.90;;;;;;5036779;28;20528;-65
2021/01/10 01:09:29;;;;;;;10.93;7.77;;;1.60;99.90;;;;;;5054494;28;20217;-66
2021/01/10 01:11:55;;;;;;;11.87;8.10;;;1.50;99.90;;;;;;5054436;28;20209;-68
2021/01/10 01:14:20;;;;;;;10.20;7.37;;;1.50;99.90;;;;;;5054521;28;20187;-64
2021/01/10 01:16:46;;;;;;;11.03;7.03;;;1.60;99.90;;;;;;5054049;28;20695;-67
2021/01/10 01:19:12;;;;;;;11.17;8.13;;;1.60;99.90;;;;;;5054128;28;20202;-63
2021/01/10 01:21:37;;;;;;;10.60;7.80;;;1.60;99.90;;;;;;5054159;28;20179;-63
2021/01/10 01:24:04;;;;;;;11.20;7.87;;;1.60;99.90;;;;;;5035101;28;20314;-66
2021/01/10 01:26:30;;;;;;;11.10;7.93;;;1.60;99.90;;;;;;5033998;28;20180;-64
2021/01/10 01:28:55;;;;;;;11.27;8.10;;;1.50;99.90;;;;;;5033977;28;20450;-65
2021/01/10 01:31:27;;;;;;;12.10;7.70;;;1.50;99.90;;;;;;5034163;28;20179;-66
2021/01/10 01:33:54;;;;;;;12.67;8.40;;;1.50;99.90;;;;;;5033842;28;20551;-67
2021/01/10 01:36:24;;;;;;;9.97;7.87;;;1.50;99.90;;;;;;5049337;28;20914;-65
2021/01/10 01:38:54;;;;;;;10.77;8.20;;;1.50;99.90;;;;;;5053568;28;20469;-65
2021/01/10 01:41:21;;;;;;;13.37;7.80;;;1.50;99.90;;;;;;5053673;28;20938;-66
2021/01/10 01:43:46;;;;;;;10.50;8.27;;;1.60;99.90;;;;;;5053788;28;20413;-65
2021/01/10 01:46:25;;;;;;;11.93;7.73;;;1.60;99.90;;;;;;5053630;28;20471;-65
2021/01/10 01:48:51;;;;;;;11.83;7.97;;;1.60;99.90;;;;;;5052526;28;20194;-64
2021/01/10 01:51:19;;;;;;;11.33;8.10;;;1.60;99.90;;;;;;5053482;28;20433;-64
2021/01/10 01:53:45;;;;;;;12.63;8.43;;;1.60;99.90;;;;;;5053548;28;20179;-64
2021/01/10 01:56:10;;;;;;;13.20;8.30;;;1.60;99.90;;;;;;5053364;28;20422;-64
2021/01/10 01:58:36;;;;;;;11.67;8.03;;;1.70;99.90;;;;;;5053510;28;20214;-66
2021/01/10 02:01:02;;;;;;;10.83;8.10;;;1.60;99.90;;;;;;5052914;28;20648;-67
2021/01/10 02:03:34;;;;;;;11.87;8.17;;;1.60;99.90;;;;;;5053091;28;20187;-65
2021/01/10 02:06:06;;;;;;;11.37;8.00;;;1.60;99.90;;;;;;5053429;28;20183;-66
2021/01/10 02:08:35;;;;;;;10.27;7.93;;;1.50;99.90;;;;;;5053010;28;20429;-64
2021/01/10 02:11:02;;;;;;;13.33;8.57;;;1.60;99.90;;;;;;5053412;28;20523;-66
2021/01/10 02:13:32;;;;;;;10.63;7.80;;;1.60;99.90;;;;;;5053037;28;20436;-65
2021/01/10 02:16:00;;;;;;;11.70;8.93;;;1.60;99.90;;;;;;5035107;28;20422;-64
2021/01/10 02:18:29;;;;;;;12.53;7.67;;;1.60;99.90;;;;;;5053041;28;20791;-65
2021/01/10 02:21:06;;;;;;;10.77;7.47;;;1.60;99.90;;;;;;5052973;28;20563;-66
2021/01/10 02:23:46;;;;;;;11.37;8.33;;;1.50;99.90;;;;;;5039237;28;20457;-66
2021/01/10 02:26:12;;;;;;;11.57;7.40;;;1.50;99.90;;;;;;5033051;28;20484;-66
2021/01/10 02:28:38;;;;;;;12.20;8.57;;;1.60;99.90;;;;;;5032682;28;20450;-65
2021/01/10 02:31:05;;;;;;;11.83;8.40;;;1.60;99.90;;;;;;5032924;28;20190;-65
2021/01/10 02:33:37;;;;;;;11.37;7.57;;;1.50;99.90;;;;;;5032664;28;20769;-66
2021/01/10 02:36:31;;;;;;;12.77;8.47;;;1.40;99.90;;;;;;5032869;28;20426;-63
2021/01/10 02:39:28;;;;;;;15.73;8.77;;;1.50;99.90;;;;;;5019323;28;20462;-65
2021/01/10 02:42:10;;;;;;;11.33;8.13;;;1.50;99.90;;;;;;5032255;28;20456;-66
2021/01/10 02:44:39;;;;;;;13.00;8.57;;;1.60;99.90;;;;;;5032608;28;20947;-66
2021/01/10 02:47:07;;;;;;;13.70;8.80;;;1.60;99.90;;;;;;5032331;28;20422;-65
2021/01/10 02:49:34;;;;;;;12.87;8.60;;;1.70;99.90;;;;;;5032490;28;20504;-64
2021/01/10 02:52:00;;;;;;;11.03;8.23;;;1.60;99.90;;;;;;5031506;28;20759;-62
2021/01/10 02:54:26;;;;;;;14.40;9.47;;;1.50;99.90;;;;;;5032456;28;20429;-64
2021/01/10 02:56:59;;;;;;;12.77;8.23;;;1.50;99.90;;;;;;5032548;28;20176;-64
2021/01/10 02:59:28;;;;;;;12.03;8.40;;;1.40;99.90;;;;;;5032314;28;20799;-65
2021/01/10 03:01:58;;;;;;;14.67;8.77;;;1.30;99.90;;;;;;5032037;28;20915;-64
2021/01/10 03:04:24;;;;;;;11.00;8.30;;;1.40;99.90;;;;;;5032286;28;20429;-64
2021/01/10 03:06:54;;;;;;;12.73;8.50;;;1.20;99.90;;;;;;5032328;28;20414;-64
2021/01/10 03:09:21;;;;;;;13.50;8.37;;;1.20;99.90;;;;;;5032031;28;20418;-67
2021/01/10 03:11:46;;;;;;;11.63;8.47;;;1.10;99.90;;;;;;5031325;28;20415;-65
2021/01/10 03:14:12;;;;;;;12.27;8.10;;;1.10;99.90;;;;;;5031803;28;20442;-64
2021/01/10 03:16:38;;;;;;;12.63;8.80;;;1.00;99.90;;;;;;5032154;28;20176;-66
2021/01/10 03:19:04;;;;;;;13.87;8.57;;;1.10;99.90;;;;;;5031937;28;20203;-65
2021/01/10 03:21:30;;;;;;;12.83;8.73;;;1.00;99.90;;;;;;5032073;28;20180;-63
2021/01/10 03:23:55;;;;;;;13.63;8.60;;;0.90;99.90;;;;;;5032646;28;20628;-64
2021/01/10 03:26:24;;;;;;;10.93;7.57;;;0.90;99.90;;;;;;5014081;28;20172;-67
2021/01/10 03:28:50;;;;;;;11.70;8.17;;;0.90;99.90;;;;;;5031970;28;20176;-65
2021/01/10 03:31:15;;;;;;;12.67;8.77;;;0.90;99.90;;;;;;5031792;28;20421;-66
2021/01/10 03:33:47;;;;;;;10.83;7.47;;;0.90;99.90;;;;;;5031914;28;20183;-66
2021/01/10 03:36:14;;;;;;;12.50;8.00;;;0.80;99.90;;;;;;5030797;28;20171;-65
2021/01/10 03:38:40;;;;;;;11.70;8.27;;;0.80;99.90;;;;;;5031638;28;20951;-64
2021/01/10 03:41:06;;;;;;;13.30;8.60;;;0.80;99.90;;;;;;5051688;28;20418;-65
2021/01/10 03:43:32;;;;;;;11.20;7.87;;;0.70;99.90;;;;;;5051761;28;20792;-64
2021/01/10 03:45:58;;;;;;;13.00;8.33;;;0.70;99.90;;;;;;5051564;28;20429;-66
2021/01/10 03:48:23;;;;;;;11.47;7.80;;;0.70;99.90;;;;;;5033800;28;20179;-66
2021/01/10 03:50:49;;;;;;;10.70;8.20;;;0.60;99.90;;;;;;5051295;28;20552;-65
2021/01/10 03:53:15;;;;;;;10.63;7.57;;;0.60;99.90;;;;;;5051607;28;20233;-66
2021/01/10 03:55:40;;;;;;;11.97;7.93;;;0.50;99.90;;;;;;5051174;28;20198;-65
2021/01/10 03:58:06;;;;;;;12.80;8.20;;;0.50;99.90;;;;;;5051478;28;20263;-64
2021/01/10 04:00:31;;;;;;;11.10;7.93;;;0.50;99.90;;;;;;5051736;28;20175;-64
2021/01/10 04:02:57;;;;;;;11.60;8.20;;;0.60;99.90;;;;;;5051325;28;20506;-64
2021/01/10 04:05:23;;;;;;;13.60;7.93;;;0.60;99.90;;;;;;5051435;28;20175;-65
2021/01/10 04:07:48;;;;;;;12.13;7.97;;;0.50;99.90;;;;;;5051371;28;20634;-67
2021/01/10 04:10:14;;;;;;;12.97;8.40;;;0.50;99.90;;;;;;5051352;28;20523;-66
2021/01/10 04:12:39;;;;;;;10.13;7.37;;;0.50;99.90;;;;;;5051329;28;20250;-63
2021/01/10 04:15:06;;;;;;;11.27;7.33;;;0.50;99.90;;;;;;5051209;28;20197;-65
2021/01/10 04:17:31;;;;;;;11.87;7.47;;;0.40;99.90;;;;;;5051509;28;20167;-64
2021/01/10 04:19:57;;;;;;;11.13;7.70;;;0.40;99.90;;;;;;5051023;28;20760;-65
2021/01/10 04:22:23;;;;;;;12.17;8.10;;;0.40;99.90;;;;;;5051256;28;20175;-66
2021/01/10 04:24:51;;;;;;;9.57;7.03;;;0.40;99.90;;;;;;5054881;28;20171;-63
2021/01/10 04:27:16;;;;;;;9.97;7.37;;;0.40;99.90;;;;;;5055110;28;20888;-65
2021/01/10 04:29:42;;;;;;;10.27;7.10;;;0.40;99.90;;;;;;5055440;28;20498;-65
2021/01/10 04:32:08;;;;;;;10.83;7.57;;;0.30;99.90;;;;;;5055016;28;20265;-64
2021/01/10 04:34:33;;;;;;;11.40;6.93;;;0.30;99.90;;;;;;5055188;28;20332;-66
2021/01/10 04:36:59;;;;;;;10.40;7.13;;;0.20;99.90;;;;;;5055052;28;20183;-65
2021/01/10 04:39:30;;;;;;;11.13;7.77;;;0.20;99.90;;;;;;5054789;28;20203;-63
2021/01/10 04:41:58;;;;;;;12.30;8.07;;;0.20;99.90;;;;;;5054597;28;20217;-65
2021/01/10 04:44:24;;;;;;;11.17;8.70;;;0.20;99.90;;;;;;5053711;28;20417;-65
2021/01/10 04:46:50;;;;;;;11.23;7.93;;;0.20;99.90;;;;;;5054662;28;20440;-64
2021/01/10 04:49:18;;;;;;;11.83;8.00;;;0.20;99.90;;;;;;5054758;28;20483;-65
2021/01/10 04:51:46;;;;;;;14.27;8.60;;;0.20;99.90;;;;;;5054936;28;20762;-63
2021/01/10 04:54:13;;;;;;;11.77;8.00;;;0.20;99.90;;;;;;5054720;28;20409;-63
2021/01/10 04:56:41;;;;;;;11.13;8.03;;;0.20;99.90;;;;;;5054372;28;20418;-65
2021/01/10 04:59:07;;;;;;;11.10;8.20;;;0.20;99.90;;;;;;5054618;28;20452;-63
2021/01/10 05:01:42;;;;;;;14.77;8.83;;;0.10;99.90;;;;;;5054458;28;20945;-64
2021/01/10 05:04:15;;;;;;;11.17;8.13;;;0.20;99.90;;;;;;5054749;28;20171;-64
2021/01/10 05:06:41;;;;;;;12.87;8.47;;;0.10;99.90;;;;;;5053337;28;20970;-64
2021/01/10 05:09:07;;;;;;;12.33;7.97;;;0.10;99.90;;;;;;5054733;28;20504;-65
2021/01/10 05:11:34;;;;;;;10.80;7.70;;;0.10;99.90;;;;;;5036614;28;20175;-65
2021/01/10 05:13:59;;;;;;;14.30;8.43;;;0.10;99.90;;;;;;5054390;28;20425;-64
2021/01/10 05:16:31;;;;;;;10.93;8.63;;;0.10;99.90;;;;;;5054260;28;20760;-65
2021/01/10 05:18:56;;;;;;;14.17;8.87;;;0.10;99.90;;;;;;5054290;28;20571;-65
2021/01/10 05:21:23;;;;;;;12.20;8.10;;;0.10;99.90;;;;;;5054412;28;20448;-64
2021/01/10 05:23:50;;;;;;;12.47;8.57;;;0.00;99.90;;;;;;5040978;28;20673;-66
2021/01/10 05:26:16;;;;;;;13.23;8.70;;;0.00;99.90;;;;;;5034221;28;20490;-66
2021/01/10 05:28:44;;;;;;;11.93;8.03;;;0.00;99.90;;;;;;5033877;28;20492;-63
2021/01/10 05:31:10;;;;;;;12.33;8.63;;;0.00;99.90;;;;;;5034149;28;20422;-63
2021/01/10 05:33:50;;;;;;;13.10;7.97;;;0.00;99.90;;;;;;5024413;28;20461;-65
2021/01/10 05:36:33;;;;;;;12.67;8.47;;;-0.10;99.90;;;;;;5053532;28;20429;-64
2021/01/10 05:39:21;;;;;;;13.27;7.50;;;-0.10;99.90;;;;;;5035986;28;20850;-65
2021/01/10 05:41:51;;;;;;;12.13;8.07;;;-0.10;99.90;;;;;;5052776;28;20457;-66
2021/01/10 05:44:16;;;;;;;13.53;8.73;;;-0.10;99.90;;;;;;5053895;28;20417;-64
2021/01/10 05:46:42;;;;;;;11.23;8.57;;;-0.10;99.90;;;;;;5053700;28;20414;-65
2021/01/10 05:49:20;;;;;;;11.90;8.60;;;-0.10;99.90;;;;;;5053861;28;20175;-64
2021/01/10 05:51:46;;;;;;;13.33;9.30;;;-0.10;99.90;;;;;;5053722;28;20542;-65
2021/01/10 05:54:37;;;;;;;13.00;8.97;;;-0.20;99.90;;;;;;5053728;28;20438;-62
2021/01/10 05:57:04;;;;;;;12.50;9.00;;;-0.20;99.90;;;;;;5053720;28;20410;-66
2021/01/10 05:59:32;;;;;;;12.07;8.17;;;-0.10;99.90;;;;;;5053443;28;20879;-64
2021/01/10 06:01:58;;;;;;;12.23;8.60;;;-0.20;99.90;;;;;;5053502;28;20487;-65
2021/01/10 06:04:24;;;;;;;13.50;8.60;;;-0.10;99.90;;;;;;5053333;28;20425;-64
2021/01/10 06:06:50;;;;;;;14.07;9.53;;;-0.20;99.90;;;;;;5053189;28;20175;-63
2021/01/10 06:09:16;;;;;;;11.17;7.67;;;-0.10;99.90;;;;;;5053393;28;20475;-65
2021/01/10 06:11:41;;;;;;;12.33;9.07;;;-0.20;99.90;;;;;;5053207;28;20182;-64
2021/01/10 06:14:07;;;;;;;11.63;8.57;;;-0.10;99.90;;;;;;5053752;28;20226;-65
2021/01/10 06:16:35;;;;;;;10.83;7.87;;;-0.20;99.90;;;;;;5053302;28;20187;-65
2021/01/10 06:19:03;;;;;;;12.70;9.13;;;-0.20;99.90;;;;;;5052850;28;20252;-64
2021/01/10 06:21:31;;;;;;;13.97;8.63;;;-0.20;99.90;;;;;;5053180;28;20471;-64
2021/01/10 06:23:58;;;;;;;12.43;8.13;;;-0.20;99.90;;;;;;5039838;28;20462;-63
2021/01/10 06:26:29;;;;;;;12.23;8.60;;;-0.20;99.90;;;;;;5033236;28;20501;-64
2021/01/10 06:28:58;;;;;;;12.40;8.33;;;-0.20;99.90;;;;;;5032858;28;20427;-64
2021/01/10 06:31:26;;;;;;;11.90;7.80;;;-0.20;99.90;;;;;;5033107;28;20461;-66
2021/01/10 06:33:57;;;;;;;12.37;8.60;;;-0.20;99.90;;;;;;5032583;28;20426;-67
2021/01/10 06:36:26;;;;;;;12.03;7.80;;;-0.20;99.90;;;;;;5032800;28;20434;-66
2021/01/10 06:38:58;;;;;;;13.23;8.83;;;-0.20;99.90;;;;;;5032683;28;20454;-65
2021/01/10 06:41:35;;;;;;;12.57;8.37;;;-0.20;99.90;;;;;;5032858;28;20458;-65
2021/01/10 06:44:08;;;;;;;12.03;8.33;;;-0.30;99.90;;;;;;5032833;28;20899;-66
2021/01/10 06:46:34;;;;;;;13.97;8.57;;;-0.20;99.90;;;;;;5040083;28;20536;-62
2021/01/10 06:49:00;;;;;;;10.20;8.20;;;-0.30;99.90;;;;;;5052701;28;20814;-64
2021/01/10 06:51:29;;;;;;;13.57;8.57;;;-0.20;99.90;;;;;;5052489;28;20225;-63
2021/01/10 06:54:04;;;;;;;10.83;8.13;;;-0.20;99.90;;;;;;5052557;28;20410;-64
2021/01/10 06:56:30;;;;;;;12.37;8.60;;;-0.20;99.90;;;;;;5052268;28;20447;-65
2021/01/10 06:59:10;;;;;;;10.80;8.30;;;-0.20;99.90;;;;;;5052417;28;20453;-63
2021/01/10 07:01:48;;;;;;;13.73;8.67;;;-0.20;99.90;;;;;;5052321;28;20748;-65
2021/01/10 07:04:15;;;;;;;14.97;8.30;;;-0.20;99.90;;;;;;5051953;28;20413;-63
2021/01/10 07:06:44;;;;;;;12.17;8.30;;;-0.20;99.90;;;;;;5052498;28;20409;-63
2021/01/10 07:09:09;;;;;;;12.10;8.40;;;-0.30;99.90;;;;;;5052320;28;20508;-62
2021/01/10 07:11:36;;;;;;;14.30;8.80;;;-0.30;99.90;;;;;;5052061;28;20831;-63
2021/01/10 07:14:01;;;;;;;12.70;8.37;;;-0.30;99.90;;;;;;5052134;28;20218;-65
2021/01/10 07:16:27;;;;;;;13.10;9.30;;;-0.20;99.90;;;;;;5051968;28;20452;-63
2021/01/10 07:18:54;;;;;;;12.63;8.73;;;-0.20;99.90;;;;;;5051884;28;20202;-66
2021/01/10 07:21:42;;;;;;;13.03;8.83;;;-0.20;99.90;;;;;;5052056;28;20410;-64
2021/01/10 07:24:16;;;;;;;11.73;8.53;;;-0.30;99.90;;;;;;5051385;28;20445;-64
2021/01/10 07:26:46;;;;;;;11.93;9.03;;;-0.30;99.90;;;;;;5051608;28;20432;-63
2021/01/10 07:29:30;;;;;;;11.60;8.50;;;-0.30;99.90;;;;;;5052167;28;20414;-64
2021/01/10 07:31:57;;;;;;;13.33;9.10;;;-0.30;99.90;;;;;;5051400;28;20409;-63
2021/01/10 07:34:23;;;;;;;11.10;8.57;;;-0.30;99.90;;;;;;5052009;28;20414;-63
2021/01/10 07:36:54;;;;;;;13.27;8.70;;;-0.30;99.90;;;;;;5051766;28;20425;-64
2021/01/10 07:39:22;;;;;;;11.27;8.13;;;-0.30;99.90;;;;;;5051624;28;20207;-65
2021/01/10 07:41:48;;;;;;;13.27;8.13;;;-0.30;99.90;;;;;;5051744;28;20414;-65
2021/01/10 07:44:17;;;;;;;12.67;8.20;;;-0.20;99.90;;;;;;5051648;28;20900;-65
2021/01/10 07:46:59;;;;;;;12.87;8.37;;;-0.30;99.90;;;;;;5051949;28;20163;-63
2021/01/10 07:49:28;;;;;;;12.43;8.03;;;-0.30;99.90;;;;;;5051132;28;20414;-64
2021/01/10 07:51:55;;;;;;;11.57;8.23;;;-0.30;99.90;;;;;;5050235;28;20434;-67
2021/01/10 07:54:52;;;;;;;12.00;8.13;;;-0.30;99.90;;;;;;5051459;28;20433;-64
2021/01/10 07:57:25;;;;;;;14.87;8.80;;;-0.20;99.90;;;;;;5051424;28;20416;-66
2021/01/10 08:00:23;;;;;;;12.70;8.90;;;-0.20;99.90;;;;;;5051206;28;20453;-66
2021/01/10 08:02:53;;;;;;;13.03;8.57;;;-0.20;99.90;;;;;;4996835;28;20418;-67
2021/01/10 08:05:22;;;;;;;11.83;8.17;;;-0.20;99.90;;;;;;5051434;28;20417;-64
2021/01/10 08:07:59;;;;;;;11.80;8.80;;;-0.10;99.90;;;;;;5051392;28;20796;-64
2021/01/10 08:10:28;;;;;;;11.30;8.30;;;-0.20;99.90;;;;;;5051452;28;20961;-65
2021/01/10 08:12:54;;;;;;;12.07;8.23;;;-0.10;99.90;;;;;;5051422;28;20413;-64
2021/01/10 08:15:20;;;;;;;12.70;8.97;;;-0.10;99.90;;;;;;5051542;28;20834;-66
2021/01/10 08:17:46;;;;;;;15.60;8.60;;;-0.10;99.90;;;;;;5051568;28;20225;-67
2021/01/10 08:20:13;;;;;;;11.47;8.00;;;0.00;99.90;;;;;;5051341;28;20653;-65
2021/01/10 08:22:39;;;;;;;11.57;8.23;;;0.00;99.90;;;;;;5050764;28;20421;-65
2021/01/10 08:25:19;;;;;;;12.53;8.60;;;0.00;99.90;;;;;;5031279;28;20537;-64
2021/01/10 08:27:46;;;;;;;10.87;7.80;;;0.10;99.90;;;;;;5031451;28;20414;-67
2021/01/10 08:30:13;;;;;;;12.87;8.43;;;0.10;99.90;;;;;;5031256;28;20480;-65
2021/01/10 08:32:39;;;;;;;10.20;7.77;;;0.10;99.90;;;;;;5031296;28;20418;-65
2021/01/10 08:35:05;;;;;;;10.60;7.40;;;0.20;99.90;;;;;;5031087;28;20904;-66
2021/01/10 08:37:30;;;;;;;12.10;8.80;;;0.30;99.90;;;;;;5051296;28;20659;-65
2021/01/10 08:40:03;;;;;;;10.47;7.50;;;0.30;99.90;;;;;;5050812;28;20457;-64
2021/01/10 08:42:32;;;;;;;11.53;7.60;;;0.30;99.90;;;;;;5050928;28;20590;-64
2021/01/10 08:45:19;;;;;;;12.63;8.27;;;0.20;99.90;;;;;;5050987;28;20922;-63
2021/01/10 08:47:46;;;;;;;11.77;8.23;;;0.20;99.90;;;;;;5051132;28;20430;-65
2021/01/10 08:50:13;;;;;;;12.07;9.33;;;0.30;99.90;;;;;;5050884;28;20421;-63
2021/01/10 08:52:51;;;;;;;12.80;9.67;;;0.30;99.90;;;;;;5051113;28;20421;-64
2021/01/10 08:55:17;;;;;;;12.63;8.77;;;0.20;99.90;;;;;;5051234;28;20876;-65
2021/01/10 08:57:43;;;;;;;14.90;9.63;;;0.20;99.90;;;;;;5050889;28;20564;-65
2021/01/10 09:00:10;;;;;;;12.13;8.57;;;0.20;99.90;;;;;;5050508;28;20207;-65
2021/01/10 09:02:35;;;;;;;12.53;8.47;;;0.20;99.90;;;;;;5032855;28;20836;-62
2021/01/10 09:05:01;;;;;;;12.77;8.23;;;0.30;99.90;;;;;;5050774;28;20546;-65
2021/01/10 09:07:31;;;;;;;12.00;8.30;;;0.30;99.90;;;;;;5050456;28;20544;-63
2021/01/10 09:10:03;;;;;;;13.60;9.40;;;0.40;99.90;;;;;;5051200;28;20183;-63
2021/01/10 09:12:38;;;;;;;12.70;8.47;;;0.50;99.90;;;;;;5054254;28;20444;-63
2021/01/10 09:15:24;;;;;;;12.57;8.70;;;0.50;99.90;;;;;;5054131;28;20424;-64
2021/01/10 09:17:56;;;;;;;13.83;8.70;;;0.50;99.90;;;;;;5054350;28;20489;-65
2021/01/10 09:20:28;;;;;;;12.60;8.10;;;0.50;99.90;;;;;;5054525;28;20519;-64
2021/01/10 09:22:56;;;;;;;12.90;7.97;;;0.50;99.90;;;;;;5055223;28;20412;-62
2021/01/10 09:25:23;;;;;;;14.33;9.07;;;0.50;99.90;;;;;;5056498;28;20431;-65
2021/01/10 09:28:09;;;;;;;14.67;10.07;;;0.60;99.90;;;;;;5055451;28;20428;-65
2021/01/10 09:30:53;;;;;;;15.30;10.27;;;0.50;99.90;;;;;;5054533;28;20417;-64
2021/01/10 09:33:31;;;;;;;10.53;8.30;;;0.50;99.90;;;;;;5037354;28;20421;-63
2021/01/10 09:36:01;;;;;;;15.03;9.57;;;0.60;99.90;;;;;;5055501;28;20452;-63
2021/01/10 09:38:29;;;;;;;13.03;8.50;;;0.70;99.90;;;;;;5036277;28;20477;-65
2021/01/10 09:41:08;;;;;;;12.17;8.07;;;0.90;99.90;;;;;;5053676;28;20776;-66
2021/01/10 09:43:47;;;;;;;10.93;7.50;;;1.00;99.90;;;;;;5054119;28;21042;-64
2021/01/10 09:46:34;;;;;;;11.57;7.83;;;1.10;99.90;;;;;;5053011;28;20416;-64
2021/01/10 09:49:22;;;;;;;13.43;8.77;;;1.20;99.90;;;;;;5040706;28;20870;-63
2021/01/10 09:51:59;;;;;;;13.30;8.73;;;1.30;99.90;;;;;;5057254;28;20421;-63
2021/01/10 09:54:30;;;;;;;9.73;7.40;;;1.30;99.90;;;;;;5039085;28;20742;-65
2021/01/10 09:57:01;;;;;;;13.60;9.23;;;1.40;99.90;;;;;;5057229;28;20417;-63
2021/01/10 09:59:33;;;;;;;12.63;8.50;;;1.50;99.90;;;;;;5055139;28;20503;-66
2021/01/10 10:02:00;;;;;;;9.73;7.67;;;1.60;99.90;;;;;;5054118;28;20425;-64
2021/01/10 10:04:29;;;;;;;9.90;7.20;;;1.70;99.90;;;;;;5054341;28;20422;-63
2021/01/10 10:06:55;;;;;;;10.43;7.30;;;1.80;99.90;;;;;;5037000;28;20414;-63
2021/01/10 10:09:21;;;;;;;14.10;9.50;;;1.90;99.90;;;;;;5054795;28;20452;-63
2021/01/10 10:11:49;;;;;;;10.67;7.53;;;1.80;99.70;;;;;;5054418;28;20421;-63
2021/01/10 10:14:15;;;;;;;9.40;7.70;;;1.80;99.90;;;;;;5053652;28;20911;-65
2021/01/10 10:16:44;;;;;;;10.00;7.40;;;1.90;99.90;;;;;;5053325;28;20418;-64
2021/01/10 10:19:10;;;;;;;10.90;8.27;;;1.90;99.90;;;;;;5055066;28;20206;-65
2021/01/10 10:21:47;;;;;;;11.57;7.43;;;1.90;99.90;;;;;;5038232;28;20436;-63
2021/01/10 10:24:16;;;;;;;11.97;7.73;;;2.00;99.90;;;;;;5053074;28;20448;-64
2021/01/10 10:26:43;;;;;;;11.00;7.00;;;2.00;99.90;;;;;;5057481;28;20805;-64
2021/01/10 10:29:12;;;;;;;9.47;6.60;;;2.10;99.70;;;;;;5037653;28;20417;-65
2021/01/10 10:31:38;;;;;;;14.50;8.83;;;2.10;99.90;;;;;;5057177;28;20405;-66
2021/01/10 10:34:04;;;;;;;10.53;7.07;;;2.10;99.60;;;;;;5036589;28;20770;-64
2021/01/10 10:36:30;;;;;;;11.87;7.87;;;2.20;99.70;;;;;;5054966;28;20186;-66
2021/01/10 10:38:55;;;;;;;9.67;7.57;;;2.20;99.60;;;;;;5036156;28;20202;-67
2021/01/10 10:41:21;;;;;;;9.67;6.90;;;2.30;99.40;;;;;;5053429;28;20233;-65
2021/01/10 10:43:47;;;;;;;9.23;7.07;;;2.30;98.60;;;;;;5054484;28;20183;-65
2021/01/10 10:46:13;;;;;;;10.60;7.57;;;2.30;98.90;;;;;;5038193;28;20179;-64
2021/01/10 10:48:40;;;;;;;9.87;7.30;;;2.40;98.90;;;;;;5055476;28;20592;-68
2021/01/10 10:51:06;;;;;;;9.33;7.03;;;2.50;98.70;;;;;;5054970;28;20424;-66
2021/01/10 10:53:31;;;;;;;9.70;7.50;;;2.50;98.40;;;;;;5037242;28;20426;-65
2021/01/10 10:55:57;;;;;;;9.80;7.73;;;2.50;98.20;;;;;;5055781;28;20194;-64
2021/01/10 10:58:23;;;;;;;11.00;7.50;;;2.50;98.40;;;;;;5052512;28;20210;-68
2021/01/10 11:00:48;;;;;;;13.67;7.97;;;2.70;97.70;;;;;;5051720;28;20241;-66
2021/01/10 11:03:14;;;;;;;11.40;7.63;;;2.70;97.20;;;;;;5051866;28;20171;-66
2021/01/10 11:05:39;;;;;;;12.93;7.87;;;2.80;97.30;;;;;;5033956;28;20197;-66
2021/01/10 11:08:05;;;;;;;10.23;6.90;;;2.80;97.20;;;;;;5051027;28;20217;-65
2021/01/10 11:10:31;;;;;;;9.90;6.90;;;2.90;97.00;;;;;;5051589;28;20255;-66
2021/01/10 11:12:56;;;;;;;9.97;7.50;;;3.00;96.90;;;;;;5051289;28;20589;-65
2021/01/10 11:15:22;;;;;;;11.60;8.37;;;3.10;97.00;;;;;;5051577;28;20186;-65
2021/01/10 11:17:48;;;;;;;9.13;6.60;;;3.10;96.40;;;;;;5051507;28;20182;-64
2021/01/10 11:20:14;;;;;;;10.60;6.83;;;3.30;97.00;;;;;;5050963;28;20222;-65
2021/01/10 11:22:41;;;;;;;12.67;7.40;;;3.40;96.50;;;;;;5051444;28;20469;-64
2021/01/10 11:25:07;;;;;;;12.97;6.93;;;3.50;95.90;;;;;;5032389;28;20218;-66
2021/01/10 11:27:33;;;;;;;10.73;7.07;;;3.60;96.60;;;;;;5031099;28;20410;-66
2021/01/10 11:29:58;;;;;;;8.40;6.83;;;3.70;95.50;;;;;;5031558;28;20477;-66
2021/01/10 11:32:24;;;;;;;11.20;6.93;;;3.90;95.40;;;;;;5030052;28;20249;-65
2021/01/10 11:34:50;;;;;;;9.50;6.73;;;4.20;95.00;;;;;;5030715;28;20184;-65
2021/01/10 11:37:16;;;;;;;9.73;7.07;;;4.40;94.10;;;;;;5030386;28;20222;-66
2021/01/10 11:39:42;;;;;;;8.60;6.60;;;4.60;95.40;;;;;;5030733;28;20462;-67
2021/01/10 11:42:08;;;;;;;10.63;7.07;;;5.00;94.30;;;;;;5030839;28;20583;-66
2021/01/10 11:44:34;;;;;;;8.37;6.67;;;5.40;94.60;;;;;;5030630;28;20191;-67
2021/01/10 11:47:01;;;;;;;7.50;6.00;;;6.40;93.00;;;;;;5030949;28;20415;-65
2021/01/10 11:49:28;;;;;;;8.30;5.80;;;6.40;93.00;;;;;;5030589;28;20708;-64
2021/01/10 11:51:55;;;;;;;10.67;6.30;;;6.90;92.30;;;;;;5030767;28;20782;-67
2021/01/10 11:54:20;;;;;;;7.83;6.00;;;7.30;91.10;;;;;;5030554;28;20433;-66
2021/01/10 11:56:47;;;;;;;9.70;6.53;;;7.80;90.60;;;;;;5030301;28;20808;-66
2021/01/10 11:59:14;;;;;;;8.33;6.27;;;8.40;89.50;;;;;;5030459;28;20199;-67
2021/01/10 12:01:40;;;;;;;7.80;5.90;;;9.00;84.20;;;;;;5030431;28;20498;-66
2021/01/10 12:04:07;;;;;;;9.80;6.10;;;9.40;83.10;;;;;;5030284;28;20418;-68
2021/01/10 12:06:36;;;;;;;10.60;6.13;;;9.90;79.00;;;;;;5029539;28;20418;-67
2021/01/10 12:09:04;;;;;;;8.17;5.97;;;10.30;77.70;;;;;;5029486;28;20457;-66
2021/01/10 12:11:30;;;;;;;7.60;5.87;;;10.60;71.40;;;;;;5030484;28;20421;-67
2021/01/10 12:13:56;;;;;;;6.47;5.57;;;10.80;75.90;;;;;;5030383;28;20188;-67
2021/01/10 12:16:21;;;;;;;10.13;5.20;;;11.20;71.30;;;;;;5030828;28;20275;-67
2021/01/10 12:18:48;;;;;;;6.33;5.27;;;11.20;63.00;;;;;;5030458;28;20207;-67
2021/01/10 12:21:14;;;;;;;6.57;5.23;;;11.50;70.70;;;;;;5032607;28;20214;-67
2021/01/10 12:23:40;;;;;;;11.93;5.27;;;11.80;67.50;;;;;;5050538;28;20734;-67
2021/01/10 12:26:14;;;;;;;4.80;4.30;;;12.10;65.00;;;;;;5050565;28;20178;-67
2021/01/10 12:28:41;;;;;;;7.70;5.07;;;12.50;62.80;;;;;;5050555;28;20285;-65
2021/01/10 12:31:06;;;;;;;5.27;4.57;;;12.80;59.40;;;;;;5050111;28;20638;-65
2021/01/10 12:33:32;;;;;;;5.27;4.57;;;12.90;57.80;;;;;;5050639;28;20257;-66
2021/01/10 12:35:59;;;;;;;8.13;4.60;;;13.00;57.70;;;;;;5050477;28;20233;-65
2021/01/10 12:38:24;;;;;;;4.80;4.30;;;13.20;59.00;;;;;;5049938;28;20278;-66
2021/01/10 12:40:50;;;;;;;10.00;5.60;;;13.10;57.70;;;;;;5050409;28;20175;-65
2021/01/10 12:43:16;;;;;;;13.80;5.93;;;13.10;58.10;;;;;;5050229;28;20225;-66
2021/01/10 12:45:41;;;;;;;8.63;5.20;;;13.10;55.00;;;;;;5053784;28;20178;-67
2021/01/10 12:48:07;;;;;;;8.27;5.30;;;13.20;56.40;;;;;;5054299;28;20229;-66
2021/01/10 12:50:33;;;;;;;7.27;5.40;;;13.10;55.90;;;;;;5035796;28;20708;-66
2021/01/10 12:52:58;;;;;;;7.13;5.20;;;12.90;55.10;;;;;;5054326;28;20186;-66